createdAt,value
2022-12-28T00:00:03.764Z,82.49
2022-12-28T00:01:03.710Z,82.29
2022-12-28T00:02:03.881Z,82.58
2022-12-28T00:03:03.798Z,82.77
2022-12-28T00:04:03.488Z,82.58
2022-12-28T00:05:03.764Z,82.39
2022-12-28T00:06:03.781Z,82.58
2022-12-28T00:07:03.795Z,82.49
2022-12-28T00:08:04.303Z,82.49
2022-12-28T00:09:03.845Z,82.39
2022-12-28T00:10:03.835Z,82.39
2022-12-28T00:11:18.895Z,82.39
2022-12-28T00:12:03.597Z,82.68
2022-12-28T00:13:03.618Z,82.49
2022-12-28T00:14:04.006Z,82.49
2022-12-28T00:15:03.915Z,82.68
2022-12-28T00:16:03.705Z,82.58
2022-12-28T00:17:04.111Z,82.49
2022-12-28T00:18:04.002Z,82.29
2022-12-28T00:19:03.725Z,82.68
2022-12-28T00:20:03.748Z,82.29
2022-12-28T00:21:04.005Z,82.39
2022-12-28T00:22:04.007Z,82.68
2022-12-28T00:23:03.870Z,82.39
2022-12-28T00:24:04.041Z,82.49
2022-12-28T00:25:04.057Z,82.39
2022-12-28T00:26:04.075Z,82.2
2022-12-28T00:27:04.096Z,82.58
2022-12-28T00:28:04.092Z,82.49
2022-12-28T00:29:07.775Z,82.68
2022-12-28T00:30:04.192Z,82.58
2022-12-28T00:31:04.144Z,82.68
2022-12-28T00:32:04.307Z,82.29
2022-12-28T00:33:04.184Z,82.2
2022-12-28T00:34:04.248Z,82.68
2022-12-28T00:35:03.947Z,82.58
2022-12-28T00:36:03.994Z,82.29
2022-12-28T00:37:14.464Z,82.29
2022-12-28T00:38:04.247Z,82.29
2022-12-28T00:39:04.267Z,82.2
2022-12-28T00:40:04.324Z,82.1
2022-12-28T00:41:04.033Z,82.1
2022-12-28T00:42:04.310Z,82.29
2022-12-28T00:43:04.323Z,82.58
2022-12-28T00:44:04.342Z,82.2
2022-12-28T00:45:04.391Z,82.29
2022-12-28T00:46:04.559Z,82.29
2022-12-28T00:47:04.411Z,82.2
2022-12-28T00:48:04.401Z,82.2
2022-12-28T00:49:04.413Z,82.2
2022-12-28T00:50:04.498Z,82.2
2022-12-28T00:51:04.451Z,82.1
2022-12-28T00:52:04.208Z,82.2
2022-12-28T00:53:04.483Z,82.2
2022-12-28T00:54:04.485Z,82.29
2022-12-28T00:55:04.254Z,82.29
2022-12-28T00:56:04.506Z,82.1
2022-12-28T00:57:04.544Z,82.29
2022-12-28T00:58:04.540Z,82.01
2022-12-28T00:59:04.327Z,82.01
2022-12-28T01:00:04.598Z,81.92
2022-12-28T01:01:04.832Z,82.39
2022-12-28T01:02:04.864Z,82.29
2022-12-28T01:03:04.769Z,82.01
2022-12-28T01:04:04.633Z,82.39
2022-12-28T01:05:04.658Z,82.39
2022-12-28T01:06:04.721Z,82.39
2022-12-28T01:07:04.690Z,82.29
2022-12-28T01:08:04.894Z,82.45
2022-12-28T01:09:04.711Z,82.39
2022-12-28T01:10:04.776Z,82.07
2022-12-28T01:11:04.736Z,82.49
2022-12-28T01:12:04.762Z,82.39
2022-12-28T01:13:04.770Z,82.2
2022-12-28T01:14:04.787Z,82.1
2022-12-28T01:15:04.809Z,81.92
2022-12-28T01:16:04.964Z,82.01
2022-12-28T01:17:04.855Z,82.29
2022-12-28T01:18:06.010Z,82.01
2022-12-28T01:19:04.865Z,82.49
2022-12-28T01:20:04.864Z,82.29
2022-12-28T01:21:04.889Z,82.29
2022-12-28T01:22:04.952Z,82.49
2022-12-28T01:23:04.920Z,82.1
2022-12-28T01:24:04.676Z,82.39
2022-12-28T01:25:04.949Z,82.49
2022-12-28T01:26:04.698Z,82.2
2022-12-28T01:27:04.965Z,81.92
2022-12-28T01:28:05.012Z,82.39
2022-12-28T01:29:05.027Z,82.07
2022-12-28T01:30:05.015Z,82.1
2022-12-28T01:31:05.034Z,82.29
2022-12-28T01:32:05.189Z,82.29
2022-12-28T01:33:05.102Z,82.29
2022-12-28T01:34:05.100Z,82.01
2022-12-28T01:35:05.092Z,82.29
2022-12-28T01:36:05.105Z,82.29
2022-12-28T01:37:05.135Z,82.1
2022-12-28T01:38:05.218Z,82.45
2022-12-28T01:39:05.346Z,82.29
2022-12-28T01:40:04.930Z,82.39
2022-12-28T01:41:05.071Z,82.39
2022-12-28T01:42:05.385Z,82.29
2022-12-28T01:43:05.149Z,82.29
2022-12-28T01:44:05.447Z,82.35
2022-12-28T01:45:05.455Z,82.29
2022-12-28T01:46:05.428Z,82.29
2022-12-28T01:47:05.261Z,82.29
2022-12-28T01:48:05.438Z,82.29
2022-12-28T01:49:05.352Z,82.1
2022-12-28T01:50:05.404Z,82.01
2022-12-28T01:51:05.396Z,82.16
2022-12-28T01:52:05.439Z,82.1
2022-12-28T01:53:05.363Z,82.29
2022-12-28T01:54:05.441Z,82.2
2022-12-28T01:55:05.382Z,82.01
2022-12-28T01:56:05.445Z,82.01
2022-12-28T01:57:05.155Z,82.39
2022-12-28T01:58:05.442Z,82.1
2022-12-28T01:59:05.434Z,82.01
2022-12-28T02:00:05.460Z,82.29
2022-12-28T02:01:05.782Z,82.35
2022-12-28T02:02:06.239Z,82.45
2022-12-28T02:03:05.654Z,82.49
2022-12-28T02:04:05.528Z,82.49
2022-12-28T02:05:05.263Z,82.39
2022-12-28T02:06:05.562Z,82.01
2022-12-28T02:07:05.566Z,82.1
2022-12-28T02:08:05.769Z,82.39
2022-12-28T02:09:05.585Z,82.1
2022-12-28T02:10:46.881Z,82.29
2022-12-28T02:11:05.619Z,82.26
2022-12-28T02:12:05.659Z,82.39
2022-12-28T02:13:05.765Z,82.45
2022-12-28T02:14:05.659Z,82.01
2022-12-28T02:15:05.681Z,82.29
2022-12-28T02:16:05.679Z,82.49
2022-12-28T02:17:05.857Z,82.45
2022-12-28T02:18:05.462Z,82.16
2022-12-28T02:19:05.736Z,82.1
2022-12-28T02:20:05.745Z,82.1
2022-12-28T02:21:05.756Z,82.2
2022-12-28T02:22:05.778Z,82.1
2022-12-28T02:23:05.793Z,82.16
2022-12-28T02:24:05.837Z,82.49
2022-12-28T02:25:14.564Z,82.1
2022-12-28T02:26:05.886Z,82.1
2022-12-28T02:27:05.853Z,82.1
2022-12-28T02:28:05.856Z,82.01
2022-12-28T02:29:05.885Z,82.39
2022-12-28T02:30:05.981Z,82.26
2022-12-28T02:31:06.085Z,82.2
2022-12-28T02:32:05.944Z,82.29
2022-12-28T02:33:05.933Z,82.29
2022-12-28T02:34:05.946Z,82.2
2022-12-28T02:35:05.974Z,82.1
2022-12-28T02:36:06.000Z,82.29
2022-12-28T02:37:06.003Z,82.1
2022-12-28T02:38:06.003Z,82.2
2022-12-28T02:39:05.768Z,82.1
2022-12-28T02:40:06.067Z,82.16
2022-12-28T02:41:06.063Z,82.29
2022-12-28T02:42:06.128Z,82.2
2022-12-28T02:43:06.105Z,82.29
2022-12-28T02:44:05.840Z,82.1
2022-12-28T02:45:05.856Z,82.29
2022-12-28T02:46:06.285Z,82.26
2022-12-28T02:47:06.149Z,82.64
2022-12-28T02:48:06.171Z,82.29
2022-12-28T02:49:06.165Z,82.29
2022-12-28T02:50:06.185Z,82.49
2022-12-28T02:51:06.202Z,82.45
2022-12-28T02:52:06.214Z,82.58
2022-12-28T02:53:05.990Z,82.1
2022-12-28T02:54:06.000Z,82.49
2022-12-28T02:55:05.989Z,82.16
2022-12-28T02:56:06.034Z,82.2
2022-12-28T02:57:06.290Z,82.39
2022-12-28T02:58:06.391Z,82.39
2022-12-28T02:59:06.316Z,82.35
2022-12-28T03:00:06.096Z,82.2
2022-12-28T03:01:06.646Z,82.35
2022-12-28T03:02:06.811Z,82.35
2022-12-28T03:03:06.552Z,82.49
2022-12-28T03:04:06.405Z,82.68
2022-12-28T03:05:06.421Z,82.49
2022-12-28T03:06:06.442Z,82.68
2022-12-28T03:07:06.438Z,82.35
2022-12-28T03:08:06.519Z,82.35
2022-12-28T03:09:06.476Z,82.54
2022-12-28T03:10:06.491Z,82.39
2022-12-28T03:11:06.236Z,82.39
2022-12-28T03:12:06.266Z,82.64
2022-12-28T03:13:06.294Z,82.29
2022-12-28T03:14:06.615Z,82.64
2022-12-28T03:15:06.282Z,82.54
2022-12-28T03:16:06.676Z,82.73
2022-12-28T03:17:06.327Z,82.77
2022-12-28T03:18:06.334Z,82.39
2022-12-28T03:19:06.611Z,82.73
2022-12-28T03:20:06.631Z,82.68
2022-12-28T03:21:06.650Z,82.77
2022-12-28T03:22:06.429Z,82.68
2022-12-28T03:23:06.422Z,82.39
2022-12-28T03:24:06.429Z,82.68
2022-12-28T03:25:06.731Z,82.58
2022-12-28T03:26:06.723Z,82.54
2022-12-28T03:27:06.759Z,82.26
2022-12-28T03:28:06.767Z,82.68
2022-12-28T03:29:06.763Z,83.01
2022-12-28T03:30:06.835Z,83.25
2022-12-28T03:31:06.735Z,82.49
2022-12-28T03:32:06.810Z,83.25
2022-12-28T03:33:06.839Z,83.11
2022-12-28T03:34:07.083Z,82.58
2022-12-28T03:35:06.852Z,82.87
2022-12-28T03:36:06.886Z,82.68
2022-12-28T03:37:06.876Z,83.06
2022-12-28T03:38:06.645Z,83.06
2022-12-28T03:39:06.657Z,82.87
2022-12-28T03:40:06.944Z,82.58
2022-12-28T03:41:06.950Z,82.87
2022-12-28T03:42:06.963Z,82.35
2022-12-28T03:43:07.059Z,82.87
2022-12-28T03:44:06.729Z,82.77
2022-12-28T03:45:07.001Z,83.01
2022-12-28T03:46:07.216Z,82.82
2022-12-28T03:47:07.038Z,83.11
2022-12-28T03:48:07.052Z,83.2
2022-12-28T03:49:07.058Z,83.01
2022-12-28T03:50:07.070Z,82.92
2022-12-28T03:51:07.126Z,82.87
2022-12-28T03:52:06.860Z,82.87
2022-12-28T03:53:07.124Z,82.87
2022-12-28T03:54:07.140Z,83.06
2022-12-28T03:55:07.160Z,83.15
2022-12-28T03:56:07.169Z,82.68
2022-12-28T03:57:07.192Z,83.06
2022-12-28T03:58:06.970Z,82.87
2022-12-28T03:59:07.214Z,82.87
2022-12-28T04:00:06.981Z,82.87
2022-12-28T04:01:07.248Z,83.2
2022-12-28T04:02:07.608Z,82.96
2022-12-28T04:03:07.370Z,82.96
2022-12-28T04:04:07.286Z,82.58
2022-12-28T04:05:07.292Z,82.64
2022-12-28T04:06:07.310Z,82.77
2022-12-28T04:07:07.328Z,82.73
2022-12-28T04:08:07.396Z,82.82
2022-12-28T04:09:07.369Z,82.82
2022-12-28T04:10:07.403Z,82.77
2022-12-28T04:11:07.403Z,82.77
2022-12-28T04:12:08.213Z,82.77
2022-12-28T04:13:07.476Z,82.82
2022-12-28T04:14:13.027Z,82.92
2022-12-28T04:15:07.451Z,82.82
2022-12-28T04:16:07.606Z,82.92
2022-12-28T04:17:08.096Z,82.49
2022-12-28T04:18:07.569Z,82.64
2022-12-28T04:19:07.525Z,82.64
2022-12-28T04:20:07.280Z,82.64
2022-12-28T04:21:07.539Z,82.64
2022-12-28T04:22:07.543Z,82.64
2022-12-28T04:23:07.572Z,82.68
2022-12-28T04:24:07.310Z,82.64
2022-12-28T04:25:07.602Z,82.68
2022-12-28T04:26:07.608Z,82.77
2022-12-28T04:27:07.615Z,82.96
2022-12-28T04:28:08.200Z,82.87
2022-12-28T04:29:07.653Z,82.82
2022-12-28T04:30:07.663Z,82.77
2022-12-28T04:31:07.837Z,82.87
2022-12-28T04:32:07.692Z,82.73
2022-12-28T04:33:07.728Z,82.73
2022-12-28T04:34:07.787Z,83.01
2022-12-28T04:35:07.806Z,83.01
2022-12-28T04:36:07.772Z,82.82
2022-12-28T04:37:07.506Z,82.77
2022-12-28T04:38:07.785Z,82.54
2022-12-28T04:39:07.536Z,82.82
2022-12-28T04:40:07.820Z,82.54
2022-12-28T04:41:07.572Z,82.87
2022-12-28T04:42:07.843Z,82.58
2022-12-28T04:43:07.852Z,82.77
2022-12-28T04:44:07.617Z,83.25
2022-12-28T04:45:07.626Z,82.77
2022-12-28T04:46:08.193Z,82.77
2022-12-28T04:47:07.912Z,83.15
2022-12-28T04:48:07.955Z,83.34
2022-12-28T04:49:08.577Z,83.15
2022-12-28T04:50:08.022Z,83.01
2022-12-28T04:51:07.970Z,83.01
2022-12-28T04:52:07.747Z,83.2
2022-12-28T04:53:07.996Z,83.25
2022-12-28T04:54:08.023Z,83.25
2022-12-28T04:55:08.027Z,83.3
2022-12-28T04:56:08.051Z,82.77
2022-12-28T04:57:08.061Z,82.87
2022-12-28T04:58:08.075Z,82.96
2022-12-28T04:59:08.085Z,83.34
2022-12-28T05:00:08.104Z,83.06
2022-12-28T05:01:08.034Z,83.15
2022-12-28T05:02:08.412Z,83.15
2022-12-28T05:03:08.237Z,83.15
2022-12-28T05:04:08.174Z,83.15
2022-12-28T05:05:08.179Z,83.62
2022-12-28T05:06:08.248Z,83.62
2022-12-28T05:07:08.203Z,83.53
2022-12-28T05:08:08.014Z,83.62
2022-12-28T05:09:08.254Z,83.62
2022-12-28T05:10:08.001Z,83.62
2022-12-28T05:11:08.258Z,83.62
2022-12-28T05:12:08.273Z,83.62
2022-12-28T05:13:08.303Z,83.44
2022-12-28T05:14:08.331Z,83.53
2022-12-28T05:15:08.325Z,83.53
2022-12-28T05:16:08.193Z,83.53
2022-12-28T05:17:08.353Z,83.34
2022-12-28T05:18:08.361Z,83.44
2022-12-28T05:19:08.368Z,83.34
2022-12-28T05:20:08.143Z,83.34
2022-12-28T05:21:08.421Z,83.44
2022-12-28T05:22:08.489Z,83.91
2022-12-28T05:23:08.464Z,83.53
2022-12-28T05:24:08.488Z,83.34
2022-12-28T05:25:08.498Z,83.34
2022-12-28T05:26:08.521Z,83.15
2022-12-28T05:27:08.243Z,83.15
2022-12-28T05:28:08.531Z,83.44
2022-12-28T05:29:08.538Z,83.82
2022-12-28T05:30:08.529Z,83.44
2022-12-28T05:31:08.749Z,83.44
2022-12-28T05:32:08.312Z,83.44
2022-12-28T05:33:08.583Z,83.53
2022-12-28T05:34:08.702Z,83.72
2022-12-28T05:35:08.613Z,83.72
2022-12-28T05:36:08.643Z,83.34
2022-12-28T05:37:08.679Z,83.72
2022-12-28T05:38:08.716Z,83.72
2022-12-28T05:39:08.432Z,83.53
2022-12-28T05:40:08.705Z,83.72
2022-12-28T05:41:08.439Z,83.72
2022-12-28T05:42:08.723Z,83.62
2022-12-28T05:43:08.750Z,83.44
2022-12-28T05:44:08.745Z,83.44
2022-12-28T05:45:08.582Z,83.53
2022-12-28T05:46:08.813Z,83.53
2022-12-28T05:47:08.958Z,83.44
2022-12-28T05:48:08.819Z,83.53
2022-12-28T05:49:08.825Z,83.44
2022-12-28T05:50:08.833Z,83.62
2022-12-28T05:51:08.853Z,83.62
2022-12-28T05:52:08.859Z,83.44
2022-12-28T05:53:08.884Z,83.44
2022-12-28T05:54:08.985Z,83.62
2022-12-28T05:55:08.909Z,83.53
2022-12-28T05:56:16.056Z,83.06
2022-12-28T05:57:08.943Z,83.82
2022-12-28T05:58:08.968Z,83.44
2022-12-28T05:59:08.969Z,83.82
2022-12-28T06:00:08.983Z,83.82
2022-12-28T06:01:09.100Z,83.82
2022-12-28T06:02:09.296Z,83.82
2022-12-28T06:03:09.443Z,83.62
2022-12-28T06:04:09.058Z,84.01
2022-12-28T06:05:09.069Z,83.82
2022-12-28T06:06:09.078Z,83.91
2022-12-28T06:07:09.105Z,83.82
2022-12-28T06:08:09.157Z,83.82
2022-12-28T06:09:09.117Z,83.82
2022-12-28T06:10:09.178Z,83.53
2022-12-28T06:11:08.885Z,83.91
2022-12-28T06:12:08.906Z,83.82
2022-12-28T06:13:09.185Z,83.91
2022-12-28T06:14:09.204Z,83.53
2022-12-28T06:15:09.195Z,83.62
2022-12-28T06:16:09.364Z,83.53
2022-12-28T06:17:09.227Z,83.82
2022-12-28T06:18:09.255Z,83.62
2022-12-28T06:19:09.274Z,83.62
2022-12-28T06:20:09.281Z,83.72
2022-12-28T06:21:09.302Z,83.82
2022-12-28T06:22:09.298Z,83.82
2022-12-28T06:23:09.328Z,83.72
2022-12-28T06:24:09.375Z,84.01
2022-12-28T06:25:09.342Z,83.91
2022-12-28T06:26:09.417Z,83.72
2022-12-28T06:27:09.394Z,84.01
2022-12-28T06:28:09.400Z,83.82
2022-12-28T06:29:09.419Z,83.82
2022-12-28T06:30:09.164Z,83.82
2022-12-28T06:31:09.429Z,83.53
2022-12-28T06:32:09.629Z,83.53
2022-12-28T06:33:09.217Z,83.72
2022-12-28T06:34:09.503Z,83.82
2022-12-28T06:35:09.238Z,83.82
2022-12-28T06:36:11.439Z,84.01
2022-12-28T06:37:09.523Z,83.82
2022-12-28T06:38:09.552Z,83.82
2022-12-28T06:39:09.568Z,83.82
2022-12-28T06:40:09.589Z,83.62
2022-12-28T06:41:17.619Z,83.53
2022-12-28T06:42:09.643Z,84.48
2022-12-28T06:43:09.628Z,84.58
2022-12-28T06:44:09.371Z,84.58
2022-12-28T06:45:09.656Z,84.58
2022-12-28T06:46:09.805Z,84.39
2022-12-28T06:47:09.673Z,84.48
2022-12-28T06:48:09.423Z,84.48
2022-12-28T06:49:09.700Z,84.67
2022-12-28T06:50:09.462Z,84.58
2022-12-28T06:51:09.740Z,84.48
2022-12-28T06:52:09.757Z,84.48
2022-12-28T06:53:09.759Z,84.48
2022-12-28T06:54:09.542Z,84.39
2022-12-28T06:55:09.798Z,84.39
2022-12-28T06:56:09.815Z,84.2
2022-12-28T06:57:09.584Z,84.29
2022-12-28T06:58:09.860Z,84.29
2022-12-28T06:59:09.595Z,84.01
2022-12-28T07:00:09.682Z,84.39
2022-12-28T07:01:10.267Z,84.29
2022-12-28T07:02:10.320Z,84.29
2022-12-28T07:03:09.962Z,84.1
2022-12-28T07:04:09.989Z,84.1
2022-12-28T07:05:09.678Z,84.1
2022-12-28T07:06:09.968Z,84.1
2022-12-28T07:07:09.968Z,84.29
2022-12-28T07:08:15.202Z,84.29
2022-12-28T07:09:10.015Z,84.2
2022-12-28T07:10:09.751Z,84.29
2022-12-28T07:11:10.070Z,84.29
2022-12-28T07:12:10.043Z,84.29
2022-12-28T07:13:10.086Z,84.2
2022-12-28T07:14:10.164Z,84.2
2022-12-28T07:15:10.083Z,84.2
2022-12-28T07:16:10.097Z,84.39
2022-12-28T07:17:10.111Z,84.2
2022-12-28T07:18:10.143Z,83.91
2022-12-28T07:19:10.180Z,84.29
2022-12-28T07:20:10.152Z,84.2
2022-12-28T07:21:10.185Z,84.2
2022-12-28T07:22:10.192Z,84.39
2022-12-28T07:23:10.216Z,84.48
2022-12-28T07:24:10.412Z,84.39
2022-12-28T07:25:10.235Z,84.29
2022-12-28T07:26:10.260Z,84.29
2022-12-28T07:27:10.265Z,84.39
2022-12-28T07:28:10.083Z,84.01
2022-12-28T07:29:10.342Z,84.39
2022-12-28T07:30:10.342Z,84.48
2022-12-28T07:31:10.427Z,84.2
2022-12-28T07:32:10.345Z,84.1
2022-12-28T07:33:10.347Z,84.1
2022-12-28T07:34:10.386Z,84.29
2022-12-28T07:35:10.392Z,84.01
2022-12-28T07:36:10.387Z,84.29
2022-12-28T07:37:10.156Z,84.67
2022-12-28T07:38:10.430Z,84.29
2022-12-28T07:39:10.603Z,84.39
2022-12-28T07:40:10.455Z,84.86
2022-12-28T07:41:10.465Z,84.86
2022-12-28T07:42:10.496Z,84.86
2022-12-28T07:43:10.514Z,84.77
2022-12-28T07:44:10.533Z,84.67
2022-12-28T07:45:10.561Z,84.48
2022-12-28T07:46:10.679Z,84.67
2022-12-28T07:47:10.564Z,84.67
2022-12-28T07:48:10.607Z,84.86
2022-12-28T07:49:10.631Z,84.67
2022-12-28T07:50:10.341Z,84.67
2022-12-28T07:51:10.637Z,84.67
2022-12-28T07:52:10.623Z,84.58
2022-12-28T07:53:10.648Z,84.86
2022-12-28T07:54:10.648Z,85.05
2022-12-28T07:55:10.677Z,85.05
2022-12-28T07:56:10.682Z,85.15
2022-12-28T07:57:10.730Z,84.86
2022-12-28T07:58:10.710Z,85.24
2022-12-28T07:59:10.732Z,84.86
2022-12-28T08:00:10.489Z,84.86
2022-12-28T08:01:11.041Z,84.67
2022-12-28T08:02:11.036Z,84.67
2022-12-28T08:03:10.884Z,85.05
2022-12-28T08:04:10.542Z,84.95
2022-12-28T08:05:10.828Z,85.05
2022-12-28T08:06:10.838Z,84.86
2022-12-28T08:07:10.850Z,84.86
2022-12-28T08:08:11.010Z,84.67
2022-12-28T08:09:10.870Z,84.86
2022-12-28T08:10:10.888Z,84.58
2022-12-28T08:11:10.914Z,84.86
2022-12-28T08:12:10.936Z,84.86
2022-12-28T08:13:10.964Z,84.95
2022-12-28T08:14:10.950Z,84.95
2022-12-28T08:15:10.967Z,84.86
2022-12-28T08:16:10.834Z,84.58
2022-12-28T08:17:13.730Z,84.58
2022-12-28T08:18:11.030Z,84.95
2022-12-28T08:19:11.024Z,85.24
2022-12-28T08:20:11.040Z,84.67
2022-12-28T08:21:11.072Z,85.05
2022-12-28T08:22:11.100Z,85.15
2022-12-28T08:23:11.092Z,85.05
2022-12-28T08:24:11.093Z,85.05
2022-12-28T08:25:11.112Z,85.24
2022-12-28T08:26:11.131Z,84.95
2022-12-28T08:27:11.147Z,84.86
2022-12-28T08:28:11.159Z,85.24
2022-12-28T08:29:11.176Z,84.95
2022-12-28T08:30:11.188Z,85.24
2022-12-28T08:31:11.328Z,85.05
2022-12-28T08:32:11.243Z,85.05
2022-12-28T08:33:11.250Z,85.05
2022-12-28T08:34:11.283Z,85.24
2022-12-28T08:35:11.256Z,85.05
2022-12-28T08:36:11.301Z,84.95
2022-12-28T08:37:11.312Z,85.05
2022-12-28T08:38:11.327Z,85.34
2022-12-28T08:39:11.314Z,85.05
2022-12-28T08:40:11.339Z,85.15
2022-12-28T08:41:11.375Z,85.05
2022-12-28T08:42:11.383Z,85.24
2022-12-28T08:43:11.378Z,85.15
2022-12-28T08:44:11.414Z,85.05
2022-12-28T08:45:11.408Z,85.05
2022-12-28T08:46:11.871Z,85.43
2022-12-28T08:47:11.580Z,85.34
2022-12-28T08:48:11.450Z,85.43
2022-12-28T08:49:11.515Z,85.53
2022-12-28T08:50:18.135Z,85.43
2022-12-28T08:51:11.274Z,85.43
2022-12-28T08:52:11.512Z,85.15
2022-12-28T08:53:11.536Z,85.24
2022-12-28T08:54:11.289Z,85.15
2022-12-28T08:55:11.584Z,84.86
2022-12-28T08:56:11.317Z,85.72
2022-12-28T08:57:11.585Z,85.72
2022-12-28T08:58:11.598Z,85.05
2022-12-28T08:59:11.661Z,84.95
2022-12-28T09:00:11.657Z,84.86
2022-12-28T09:01:12.112Z,85.05
2022-12-28T09:02:11.657Z,85.15
2022-12-28T09:03:12.058Z,84.86
2022-12-28T09:04:11.686Z,85.15
2022-12-28T09:05:11.737Z,85.05
2022-12-28T09:06:11.741Z,85.05
2022-12-28T09:07:11.731Z,85.53
2022-12-28T09:08:11.798Z,85.15
2022-12-28T09:09:11.780Z,85.05
2022-12-28T09:10:11.957Z,84.95
2022-12-28T09:11:11.792Z,85.05
2022-12-28T09:12:11.546Z,85.05
2022-12-28T09:13:11.817Z,85.05
2022-12-28T09:14:15.667Z,84.77
2022-12-28T09:15:11.848Z,84.95
2022-12-28T09:16:11.971Z,85.15
2022-12-28T09:17:11.882Z,84.95
2022-12-28T09:18:11.943Z,85.05
2022-12-28T09:19:11.919Z,85.05
2022-12-28T09:20:11.918Z,84.95
2022-12-28T09:21:11.966Z,84.95
2022-12-28T09:22:11.980Z,84.86
2022-12-28T09:23:11.977Z,84.95
2022-12-28T09:24:11.983Z,85.05
2022-12-28T09:25:12.004Z,84.77
2022-12-28T09:26:12.020Z,84.86
2022-12-28T09:27:12.041Z,84.95
2022-12-28T09:28:12.056Z,85.05
2022-12-28T09:29:12.062Z,84.95
2022-12-28T09:30:11.814Z,84.95
2022-12-28T09:31:12.157Z,84.95
2022-12-28T09:32:12.116Z,84.86
2022-12-28T09:33:12.136Z,84.86
2022-12-28T09:34:42.136Z,84.95
2022-12-28T09:35:12.176Z,85.24
2022-12-28T09:36:12.164Z,85.34
2022-12-28T09:37:11.945Z,85.24
2022-12-28T09:38:12.247Z,85.53
2022-12-28T09:39:12.094Z,85.62
2022-12-28T09:40:11.959Z,85.62
2022-12-28T09:41:11.997Z,85.72
2022-12-28T09:42:12.256Z,85.72
2022-12-28T09:43:12.012Z,85.62
2022-12-28T09:44:12.284Z,85.53
2022-12-28T09:45:12.294Z,85.53
2022-12-28T09:46:12.469Z,85.53
2022-12-28T09:47:12.320Z,85.34
2022-12-28T09:48:12.383Z,85.24
2022-12-28T09:49:12.357Z,85.24
2022-12-28T09:50:12.369Z,84.95
2022-12-28T09:51:12.380Z,84.86
2022-12-28T09:52:12.404Z,84.67
2022-12-28T09:53:12.483Z,85.53
2022-12-28T09:54:12.467Z,85.72
2022-12-28T09:55:12.189Z,85.43
2022-12-28T09:56:12.460Z,85.53
2022-12-28T09:57:12.508Z,85.43
2022-12-28T09:58:12.483Z,85.24
2022-12-28T09:59:12.502Z,85.43
2022-12-28T10:00:12.265Z,85.34
2022-12-28T10:01:12.760Z,85.43
2022-12-28T10:02:12.636Z,85.34
2022-12-28T10:03:12.675Z,85.62
2022-12-28T10:04:12.582Z,85.62
2022-12-28T10:05:12.602Z,85.43
2022-12-28T10:06:12.610Z,85.57
2022-12-28T10:07:12.616Z,85.47
2022-12-28T10:08:12.583Z,85.53
2022-12-28T10:09:12.677Z,85.62
2022-12-28T10:10:12.700Z,85.62
2022-12-28T10:11:12.685Z,85.53
2022-12-28T10:12:12.444Z,85.62
2022-12-28T10:13:56.086Z,85.72
2022-12-28T10:14:12.878Z,85.43
2022-12-28T10:15:12.935Z,85.47
2022-12-28T10:16:13.015Z,85.43
2022-12-28T10:17:12.965Z,85.47
2022-12-28T10:18:12.889Z,85.47
2022-12-28T10:19:12.949Z,85.66
2022-12-28T10:20:12.999Z,85.72
2022-12-28T10:21:12.961Z,85.53
2022-12-28T10:22:12.920Z,85.15
2022-12-28T10:23:12.934Z,85.76
2022-12-28T10:24:42.623Z,85.19
2022-12-28T10:25:12.990Z,85.38
2022-12-28T10:26:12.948Z,85.66
2022-12-28T10:27:12.949Z,85.38
2022-12-28T10:28:12.956Z,85.38
2022-12-28T10:29:12.956Z,85.76
2022-12-28T10:30:12.952Z,85.76
2022-12-28T10:31:12.904Z,85.38
2022-12-28T10:32:12.933Z,85.47
2022-12-28T10:33:16.337Z,85.47
2022-12-28T10:34:13.022Z,85.19
2022-12-28T10:35:13.041Z,85.47
2022-12-28T10:36:13.049Z,85.47
2022-12-28T10:37:17.104Z,85.66
2022-12-28T10:38:13.101Z,85.66
2022-12-28T10:39:13.353Z,85.57
2022-12-28T10:40:12.981Z,85.66
2022-12-28T10:41:13.130Z,85.47
2022-12-28T10:42:13.171Z,85.66
2022-12-28T10:43:13.792Z,85.38
2022-12-28T10:44:41.496Z,85.47
2022-12-28T10:45:12.941Z,85.38
2022-12-28T10:46:13.207Z,85.38
2022-12-28T10:47:13.215Z,85.38
2022-12-28T10:48:12.970Z,85.38
2022-12-28T11:03:27.079Z,86.05
2022-12-28T11:04:26.806Z,85.76
2022-12-28T11:05:26.584Z,86.24
2022-12-28T11:06:29.886Z,86.14
2022-12-28T11:07:26.874Z,85.76
2022-12-28T11:08:27.169Z,86.24
2022-12-28T11:09:26.919Z,86.14
2022-12-28T11:10:26.914Z,85.76
2022-12-28T11:11:26.919Z,86.14
2022-12-28T11:12:26.927Z,86.43
2022-12-28T11:13:26.941Z,85.95
2022-12-28T11:14:26.954Z,86.05
2022-12-28T11:15:26.991Z,86.33
2022-12-28T11:16:27.110Z,86.24
2022-12-28T11:17:27.015Z,86.14
2022-12-28T11:18:27.017Z,86.14
2022-12-28T11:19:27.162Z,86.14
2022-12-28T11:20:27.056Z,86.14
2022-12-28T11:21:27.070Z,86.05
2022-12-28T11:22:27.091Z,86.33
2022-12-28T11:23:27.100Z,86.14
2022-12-28T11:24:26.905Z,86.14
2022-12-28T11:25:27.138Z,86.05
2022-12-28T11:26:27.137Z,86.05
2022-12-28T11:27:27.187Z,85.95
2022-12-28T11:28:26.905Z,86.14
2022-12-28T11:29:27.204Z,86.14
2022-12-28T11:30:27.197Z,86.14
2022-12-28T11:31:27.389Z,85.86
2022-12-28T11:32:27.229Z,86.14
2022-12-28T11:33:27.263Z,86.33
2022-12-28T11:34:27.265Z,85.95
2022-12-28T11:35:27.326Z,85.86
2022-12-28T11:36:27.038Z,85.95
2022-12-28T11:37:27.301Z,85.95
2022-12-28T11:38:27.317Z,85.95
2022-12-28T11:39:27.354Z,85.95
2022-12-28T11:40:27.345Z,86.24
2022-12-28T11:41:35.415Z,85.95
2022-12-28T11:42:44.033Z,85.95
2022-12-28T11:43:27.414Z,86.14
2022-12-28T11:44:27.404Z,86.14
2022-12-28T11:45:27.522Z,85.86
2022-12-28T11:46:27.431Z,86.14
2022-12-28T11:47:31.203Z,86.14
2022-12-28T11:48:27.469Z,86.24
2022-12-28T11:49:27.543Z,86.24
2022-12-28T11:50:27.499Z,86.24
2022-12-28T11:51:27.575Z,85.86
2022-12-28T11:52:27.593Z,85.95
2022-12-28T11:53:27.525Z,86.14
2022-12-28T11:54:27.557Z,86.33
2022-12-28T11:55:27.568Z,86.71
2022-12-28T11:56:27.585Z,86.05
2022-12-28T11:57:27.595Z,86.8
2022-12-28T11:58:27.615Z,86.71
2022-12-28T11:59:27.633Z,86.71
2022-12-28T12:00:27.882Z,86.71
2022-12-28T12:01:27.796Z,86.33
2022-12-28T12:02:27.787Z,86.61
2022-12-28T12:03:27.796Z,86.8
2022-12-28T12:04:27.704Z,86.61
2022-12-28T12:05:27.462Z,86.33
2022-12-28T12:06:39.876Z,86.61
2022-12-28T12:07:33.972Z,86.14
2022-12-28T12:08:28.065Z,86.71
2022-12-28T12:09:27.778Z,86.61
2022-12-28T12:10:27.791Z,86.61
2022-12-28T12:11:27.805Z,86.61
2022-12-28T12:12:27.562Z,86.71
2022-12-28T12:13:27.611Z,86.52
2022-12-28T12:14:27.865Z,86.71
2022-12-28T12:15:27.893Z,86.71
2022-12-28T12:16:28.057Z,86.24
2022-12-28T12:17:27.925Z,86.33
2022-12-28T12:18:27.915Z,86.71
2022-12-28T12:19:27.930Z,86.71
2022-12-28T12:20:27.941Z,86.52
2022-12-28T12:21:27.978Z,86.43
2022-12-28T12:22:28.015Z,86.61
2022-12-28T12:23:28.008Z,86.52
2022-12-28T12:24:28.018Z,86.52
2022-12-28T12:25:28.017Z,86.71
2022-12-28T12:26:28.064Z,86.52
2022-12-28T12:27:28.059Z,86.52
2022-12-28T12:28:28.062Z,86.14
2022-12-28T12:29:28.094Z,86.71
2022-12-28T12:30:28.238Z,86.71
2022-12-28T12:31:28.438Z,86.52
2022-12-28T12:32:28.126Z,86.52
2022-12-28T12:33:28.153Z,86.33
2022-12-28T12:34:28.159Z,86.43
2022-12-28T12:35:28.180Z,86.71
2022-12-28T12:36:27.923Z,86.71
2022-12-28T12:37:28.200Z,86.8
2022-12-28T12:38:27.978Z,86.52
2022-12-28T12:39:28.250Z,86.43
2022-12-28T12:40:28.237Z,86.52
2022-12-28T12:41:28.004Z,86.71
2022-12-28T12:42:28.271Z,86.71
2022-12-28T12:43:28.328Z,86.61
2022-12-28T12:44:28.309Z,86.71
2022-12-28T12:45:28.334Z,86.71
2022-12-28T12:46:28.484Z,86.71
2022-12-28T12:47:28.356Z,86.43
2022-12-28T12:48:28.364Z,86.33
2022-12-28T12:49:28.385Z,86.43
2022-12-28T12:50:28.412Z,86.52
2022-12-28T12:51:28.160Z,86.61
2022-12-28T12:52:28.434Z,86.33
2022-12-28T12:53:28.438Z,86.33
2022-12-28T12:54:28.220Z,86.52
2022-12-28T12:55:28.503Z,86.71
2022-12-28T12:56:28.505Z,86.24
2022-12-28T12:57:28.504Z,86.33
2022-12-28T12:58:28.518Z,86.43
2022-12-28T12:59:28.542Z,86.24
2022-12-28T13:00:28.537Z,86.33
2022-12-28T13:01:28.804Z,86.24
2022-12-28T13:02:28.936Z,86.24
2022-12-28T13:03:28.695Z,86.52
2022-12-28T13:04:28.612Z,86.61
2022-12-28T13:05:28.621Z,86.52
2022-12-28T13:06:28.657Z,86.52
2022-12-28T13:07:28.659Z,86.52
2022-12-28T13:08:28.807Z,86.52